createdAt,value
2023-04-24T00:06:46.484Z,70.90
2023-04-24T00:12:21.038Z,70.60
2023-04-24T00:18:17.440Z,71.00
2023-04-24T00:24:40.508Z,70.70
2023-04-24T00:27:36.026Z,71.40
2023-04-24T00:33:41.988Z,71.10
2023-04-24T00:36:26.661Z,71.10
2023-04-24T00:39:01.851Z,70.80
2023-04-24T00:46:06.076Z,71.20
2023-04-24T00:49:02.821Z,71.10
2023-04-24T00:51:51.705Z,71.30
2023-04-24T00:54:42.137Z,71.50
2023-04-24T00:58:01.644Z,71.20
2023-04-24T01:01:27.830Z,71.40
2023-04-24T01:04:24.579Z,71.50
2023-04-24T01:10:59.973Z,71.70
2023-04-24T01:13:46.255Z,71.50
2023-04-24T01:17:07.551Z,71.50
2023-04-24T01:20:12.090Z,71.80
2023-04-24T01:23:14.255Z,71.60
2023-04-24T01:26:16.269Z,71.70
2023-04-24T01:29:22.342Z,71.60
2023-04-24T01:32:13.771Z,71.40
2023-04-24T01:34:46.364Z,71.50
2023-04-24T01:37:50.273Z,71.20
2023-04-24T01:40:49.995Z,71.50
2023-04-24T01:43:57.410Z,71.70
2023-04-24T01:46:50.405Z,71.50
2023-04-24T01:50:01.219Z,71.70
2023-04-24T01:52:45.126Z,71.70
2023-04-24T01:55:36.054Z,72.00
2023-04-24T02:01:27.228Z,72.10
2023-04-24T02:07:51.073Z,72.30
2023-04-24T02:10:48.399Z,72.00
2023-04-24T02:17:42.659Z,71.90
2023-04-24T02:20:24.197Z,72.20
2023-04-24T02:23:22.924Z,72.10
2023-04-24T02:26:05.892Z,72.40
2023-04-24T02:32:01.933Z,72.50
2023-04-24T02:34:37.048Z,72.50
2023-04-24T02:37:16.048Z,72.50
2023-04-24T02:43:40.547Z,72.40
2023-04-24T02:46:41.759Z,72.50
2023-04-24T02:52:43.928Z,72.30
2023-04-24T02:55:15.635Z,72.50
2023-04-24T03:01:14.934Z,72.60
2023-04-24T03:07:23.940Z,72.60
2023-04-24T03:10:26.296Z,72.90
2023-04-24T03:13:24.181Z,72.70
2023-04-24T03:22:45.689Z,72.40
2023-04-24T03:28:46.045Z,72.50
2023-04-24T03:31:45.433Z,72.40
2023-04-24T03:34:36.742Z,72.30
2023-04-24T03:37:09.331Z,72.30
2023-04-24T03:40:01.813Z,72.40
2023-04-24T03:49:12.275Z,72.70
2023-04-24T03:52:15.425Z,72.70
2023-04-24T03:58:39.524Z,72.60
2023-04-24T04:01:46.189Z,72.80
2023-04-24T04:04:40.522Z,72.80
2023-04-24T04:07:18.114Z,72.80
2023-04-24T04:10:18.708Z,73.10
2023-04-24T04:13:49.639Z,72.80
2023-04-24T04:16:37.428Z,72.80
2023-04-24T04:19:42.721Z,73.00
2023-04-24T04:22:59.163Z,72.70
2023-04-24T04:25:55.823Z,72.50
2023-04-24T04:29:04.794Z,72.20
2023-04-24T04:31:41.485Z,72.10
2023-04-24T04:34:19.697Z,72.00
2023-04-24T04:40:53.034Z,71.70
2023-04-24T04:43:48.335Z,71.10
2023-04-24T04:47:09.537Z,71.30
2023-04-24T04:49:48.053Z,70.90
2023-04-24T04:52:54.181Z,70.30
2023-04-24T04:55:48.173Z,70.10
2023-04-24T05:02:41.119Z,69.40
2023-04-24T05:05:11.175Z,69.60
2023-04-24T05:07:43.367Z,69.60
2023-04-24T05:10:48.137Z,69.80
2023-04-24T05:13:38.221Z,69.40
2023-04-24T05:16:28.922Z,69.00
2023-04-24T05:19:09.580Z,68.90
2023-04-24T05:21:58.373Z,69.10
2023-04-24T05:24:46.572Z,68.80
2023-04-24T05:27:53.521Z,68.30
2023-04-24T05:30:33.563Z,68.60
2023-04-24T05:33:14.083Z,68.00
2023-04-24T05:35:50.388Z,68.50
2023-04-24T05:39:08.999Z,68.40
2023-04-24T05:41:45.947Z,67.30
2023-04-24T05:44:25.624Z,67.80
2023-04-24T05:47:06.101Z,67.20
2023-04-24T05:49:45.470Z,67.40
2023-04-24T05:52:28.020Z,67.10
2023-04-24T05:55:04.198Z,67.10
2023-04-24T05:58:00.258Z,67.10
2023-04-24T06:00:40.827Z,66.90
2023-04-24T06:03:20.963Z,66.70
2023-04-24T06:05:56.545Z,65.70
2023-04-24T06:08:33.774Z,66.20
2023-04-24T06:11:12.127Z,65.40
2023-04-24T06:13:50.737Z,65.50
2023-04-24T06:16:37.486Z,65.50
2023-04-24T06:19:13.601Z,64.80
2023-04-24T06:21:45.721Z,64.60
2023-04-24T06:24:32.837Z,64.60
2023-04-24T06:27:15.727Z,64.80
2023-04-24T06:32:55.792Z,64.00
2023-04-24T06:35:40.179Z,64.10
2023-04-24T06:38:14.421Z,64.00
2023-04-24T06:40:49.746Z,63.80
2023-04-24T06:43:33.606Z,63.80
2023-04-24T06:46:08.828Z,63.80
2023-04-24T06:48:51.936Z,63.10
2023-04-24T06:51:28.408Z,62.80
2023-04-24T06:54:13.716Z,62.80
2023-04-24T06:56:53.558Z,62.70
2023-04-24T06:59:36.166Z,61.90
2023-04-24T07:02:13.835Z,62.00
2023-04-24T07:05:08.150Z,61.50
2023-04-24T07:07:39.068Z,61.00
2023-04-24T07:10:15.377Z,61.60
2023-04-24T07:12:51.589Z,61.70
2023-04-24T07:15:27.846Z,61.40
2023-04-24T07:18:05.974Z,60.70
2023-04-24T07:20:40.095Z,60.80
2023-04-24T07:23:14.715Z,60.60
2023-04-24T07:25:45.484Z,60.40
2023-04-24T07:28:44.108Z,60.10
2023-04-24T07:31:18.824Z,60.20
2023-04-24T07:33:50.136Z,59.60
2023-04-24T07:36:21.683Z,59.60
2023-04-24T07:38:56.124Z,59.40
2023-04-24T07:41:30.129Z,59.10
2023-04-24T07:44:13.247Z,58.80
2023-04-24T07:46:50.099Z,58.60
2023-04-24T07:49:24.777Z,58.60
2023-04-24T07:51:54.988Z,58.60
2023-04-24T07:54:28.983Z,58.80
2023-04-24T07:57:01.659Z,58.70
2023-04-24T07:59:42.137Z,58.70
2023-04-24T08:02:17.941Z,58.60
2023-04-24T08:04:46.585Z,58.30
2023-04-24T08:07:15.369Z,58.20
2023-04-24T08:09:46.905Z,58.10
2023-04-24T08:12:29.762Z,57.90
2023-04-24T08:15:06.595Z,58.10
2023-04-24T08:17:45.265Z,58.30
2023-04-24T08:20:19.038Z,57.80
2023-04-24T08:22:55.933Z,57.50
2023-04-24T08:25:29.725Z,57.00
2023-04-24T08:28:00.790Z,56.90
2023-04-24T08:30:36.863Z,57.10
2023-04-24T08:33:08.518Z,56.40
2023-04-24T08:35:45.773Z,56.60
2023-04-24T08:38:22.852Z,56.50
2023-04-24T08:40:54.048Z,56.50
2023-04-24T08:43:28.144Z,56.90
2023-04-24T08:46:10.263Z,56.80
2023-04-24T08:48:47.931Z,57.40
2023-04-24T08:51:26.334Z,57.70
2023-04-24T08:53:59.752Z,57.40
2023-04-24T08:56:49.197Z,57.30
2023-04-24T08:59:38.961Z,56.90
2023-04-24T09:02:27.221Z,56.90
2023-04-24T09:05:21.160Z,56.70
2023-04-24T09:07:58.448Z,56.60
2023-04-24T09:10:46.206Z,56.30
2023-04-24T09:13:21.083Z,56.10
2023-04-24T09:16:06.310Z,55.60
2023-04-24T09:18:51.106Z,55.20
2023-04-24T09:21:30.694Z,54.60
2023-04-24T09:24:21.965Z,54.70
2023-04-24T09:27:02.604Z,54.50
2023-04-24T09:29:41.736Z,54.80
2023-04-24T09:32:27.192Z,54.60
2023-04-24T09:35:14.052Z,54.60
2023-04-24T09:37:57.268Z,54.30
2023-04-24T09:40:54.965Z,54.40
2023-04-24T09:43:25.220Z,54.50
2023-04-24T09:45:59.914Z,54.40
2023-04-24T09:48:35.990Z,54.50
2023-04-24T09:51:12.085Z,54.60
2023-04-24T09:53:57.620Z,54.80
2023-04-24T09:56:37.343Z,54.50
2023-04-24T09:59:10.654Z,54.70
2023-04-24T10:01:46.327Z,54.40
2023-04-24T10:04:22.544Z,54.20
2023-04-24T10:06:53.894Z,53.90
2023-04-24T10:09:27.198Z,54.00
2023-04-24T10:11:57.104Z,53.90
2023-04-24T10:14:35.840Z,54.00
2023-04-24T10:17:20.508Z,53.60
2023-04-24T10:19:54.916Z,53.80
2023-04-24T10:22:33.796Z,53.90
2023-04-24T10:25:06.088Z,53.50
2023-04-24T10:27:36.618Z,53.70
2023-04-24T10:30:10.366Z,53.10
2023-04-24T10:32:43.386Z,53.10
2023-04-24T10:35:15.535Z,52.90
2023-04-24T10:37:48.556Z,53.00
2023-04-24T10:40:21.121Z,52.90
2023-04-24T10:42:50.746Z,53.00
2023-04-24T10:45:20.160Z,52.90
2023-04-24T10:47:56.664Z,52.80
2023-04-24T10:50:28.502Z,52.40
2023-04-24T10:53:13.427Z,52.50
2023-04-24T10:55:52.330Z,52.10
2023-04-24T10:59:01.020Z,52.50
2023-04-24T11:02:02.076Z,52.20
2023-04-24T11:04:41.868Z,51.90
2023-04-24T11:07:22.981Z,51.90
2023-04-24T11:10:04.930Z,51.90
2023-04-24T11:12:41.065Z,52.20
2023-04-24T11:15:25.216Z,51.90
2023-04-24T11:18:16.037Z,52.20
2023-04-24T11:21:06.810Z,51.60
2023-04-24T11:23:54.660Z,52.20
2023-04-24T11:26:51.131Z,52.40
2023-04-24T11:29:43.445Z,52.30
2023-04-24T11:32:20.445Z,52.40
2023-04-24T11:35:09.222Z,52.50
2023-04-24T11:38:19.365Z,53.40
2023-04-24T11:41:01.494Z,52.90
2023-04-24T11:46:44.300Z,52.80
2023-04-24T11:49:27.790Z,53.10
2023-04-24T11:52:00.929Z,52.10
2023-04-24T11:54:33.800Z,51.00
2023-04-24T11:57:21.510Z,50.50
2023-04-24T12:00:21.046Z,49.70
2023-04-24T12:03:25.820Z,49.40
2023-04-24T12:06:01.649Z,49.70
2023-04-24T12:08:38.592Z,50.10
2023-04-24T12:11:20.812Z,50.50
2023-04-24T12:14:11.524Z,50.90
2023-04-24T12:16:55.409Z,50.60
2023-04-24T12:19:44.618Z,51.00
2023-04-24T12:22:29.615Z,51.00
2023-04-24T12:25:11.301Z,51.30
2023-04-24T12:30:49.911Z,51.30
2023-04-24T12:33:22.391Z,51.00
2023-04-24T12:36:14.401Z,50.80
2023-04-24T12:39:12.340Z,50.90
2023-04-24T12:42:00.545Z,50.80
2023-04-24T12:44:41.150Z,50.00
2023-04-24T12:47:29.335Z,50.00
2023-04-24T12:50:08.415Z,49.70
2023-04-24T12:53:07.545Z,48.60
2023-04-24T12:55:50.930Z,48.30
2023-04-24T12:58:36.560Z,48.80
2023-04-24T13:01:29.725Z,48.40
2023-04-24T13:04:15.037Z,48.40
2023-04-24T13:06:45.072Z,48.10
2023-04-24T13:09:15.407Z,48.70
2023-04-24T13:11:57.958Z,49.10
2023-04-24T13:14:34.542Z,48.60
2023-04-24T13:17:12.811Z,46.60
2023-04-24T13:20:02.067Z,45.30
2023-04-24T13:22:51.350Z,44.50
2023-04-24T13:26:28.657Z,44.50
2023-04-24T13:34:59.132Z,43.20
2023-04-24T13:37:49.255Z,41.30
2023-04-24T13:40:37.951Z,41.80
2023-04-24T13:43:12.198Z,41.80
2023-04-24T13:45:45.599Z,41.70
2023-04-24T13:48:29.847Z,40.20
2023-04-24T13:51:01.570Z,38.60
2023-04-24T13:53:47.754Z,38.30
2023-04-24T13:56:49.626Z,37.30
2023-04-24T13:59:29.409Z,36.60
2023-04-24T14:05:29.450Z,38.20
2023-04-24T14:22:47.653Z,37.00
2023-04-24T14:35:41.331Z,35.20
2023-04-24T14:42:59.828Z,35.60
2023-04-24T14:45:33.849Z,36.90
2023-04-24T14:48:08.182Z,37.60
2023-04-24T14:51:14.210Z,37.70
2023-04-24T14:54:02.017Z,37.40
2023-04-24T14:57:37.220Z,38.20
2023-04-24T15:00:41.392Z,38.20
2023-04-24T15:18:54.241Z,39.00
2023-04-24T15:21:28.911Z,38.60
2023-04-24T15:24:09.431Z,38.90
2023-04-24T15:27:04.386Z,38.60
2023-04-24T15:32:56.555Z,38.50
2023-04-24T15:35:50.419Z,38.40
2023-04-24T15:38:44.388Z,38.80
2023-04-24T15:41:15.676Z,39.50
2023-04-24T15:43:52.064Z,40.00
2023-04-24T15:46:34.114Z,39.90
2023-04-24T15:49:42.973Z,41.30
2023-04-24T15:52:40.140Z,40.90
2023-04-24T15:55:39.584Z,40.90
2023-04-24T16:02:30.305Z,41.20
2023-04-24T16:05:06.664Z,41.60
2023-04-24T16:08:28.863Z,42.00
2023-04-24T16:11:09.618Z,42.70
2023-04-24T16:14:35.036Z,42.90
2023-04-24T16:17:29.419Z,43.20
2023-04-24T16:20:52.247Z,43.20
2023-04-24T16:24:20.710Z,43.10
2023-04-24T16:33:45.460Z,43.80
2023-04-24T16:36:26.338Z,43.90
2023-04-24T16:49:26.879Z,45.40
2023-04-24T16:52:49.592Z,46.10
2023-04-24T16:55:41.772Z,45.90
2023-04-24T16:58:19.922Z,46.30
2023-04-24T17:01:04.121Z,46.20
2023-04-24T17:04:53.772Z,46.50
2023-04-24T17:07:25.228Z,46.80
2023-04-24T17:10:49.928Z,47.00
2023-04-24T17:13:50.383Z,47.20
2023-04-24T17:23:53.115Z,46.90
2023-04-24T17:41:11.993Z,47.40
2023-04-24T19:08:27.625Z,50.90
2023-04-24T19:14:45.264Z,51.20
2023-04-24T19:18:36.117Z,51.00
2023-04-24T19:22:06.017Z,51.20
2023-04-24T19:25:31.274Z,51.20
2023-04-24T19:28:08.941Z,51.50
2023-04-24T19:30:44.178Z,51.70
2023-04-24T19:33:33.359Z,51.80
2023-04-24T19:36:20.480Z,51.90
2023-04-24T19:39:42.887Z,51.50
2023-04-24T19:42:43.842Z,52.00
2023-04-24T19:45:53.215Z,52.00
2023-04-24T19:49:07.204Z,52.10
2023-04-24T19:52:29.601Z,52.30
2023-04-24T19:56:19.172Z,52.20
2023-04-24T19:58:50.030Z,52.10
2023-04-24T20:01:36.866Z,52.40
2023-04-24T20:04:23.681Z,52.60
2023-04-24T20:06:55.504Z,52.70
2023-04-24T20:29:30.409Z,53.40
2023-04-24T20:32:05.104Z,53.70
2023-04-24T20:34:33.747Z,53.90
2023-04-24T20:37:04.150Z,53.80
2023-04-24T20:39:32.553Z,54.00
2023-04-24T20:42:01.428Z,54.10
2023-04-24T20:44:57.554Z,54.20
2023-04-24T20:47:38.027Z,54.30
2023-04-24T20:50:10.556Z,54.40
2023-04-24T20:52:45.302Z,54.10
2023-04-24T20:55:20.100Z,54.70
2023-04-24T20:57:51.669Z,54.70
2023-04-24T21:00:25.421Z,54.80
2023-04-24T21:02:56.660Z,55.00
2023-04-24T21:05:28.173Z,55.00
2023-04-24T21:07:57.960Z,55.10
2023-04-24T21:10:27.233Z,55.10
2023-04-24T21:12:55.673Z,55.10
2023-04-24T21:19:41.515Z,55.10
2023-04-24T21:22:10.403Z,55.20
2023-04-24T21:24:38.859Z,55.30
2023-04-24T21:27:07.559Z,55.30
2023-04-24T21:29:38.309Z,55.40
2023-04-24T21:32:06.798Z,55.60
2023-04-24T21:34:35.286Z,55.50
2023-04-24T21:37:05.139Z,55.50
2023-04-24T21:39:33.532Z,55.50
2023-04-24T21:42:02.137Z,55.60
2023-04-24T21:44:30.641Z,55.50
2023-04-24T21:46:59.351Z,55.50
2023-04-24T21:49:30.512Z,55.60
2023-04-24T21:52:01.314Z,55.70
2023-04-24T21:54:32.606Z,55.60
2023-04-24T21:57:02.395Z,55.90
2023-04-24T21:59:32.793Z,55.60
2023-04-24T22:02:01.251Z,55.80
2023-04-24T22:04:29.644Z,55.80
2023-04-24T22:06:58.089Z,55.90
2023-04-24T22:09:26.622Z,56.60
2023-04-24T22:11:56.634Z,56.00
2023-04-24T22:14:25.286Z,55.90
2023-04-24T22:16:54.281Z,56.00
2023-04-24T22:19:22.803Z,55.90
2023-04-24T22:21:51.710Z,56.00
2023-04-24T22:24:20.479Z,56.00
2023-04-24T22:26:51.220Z,56.10
2023-04-24T22:29:21.641Z,56.30
2023-04-24T22:31:50.581Z,56.20
2023-04-24T22:34:19.803Z,56.20
2023-04-24T22:36:48.431Z,56.30
2023-04-24T22:39:17.604Z,56.30
2023-04-24T22:41:48.369Z,56.50
2023-04-24T22:44:16.780Z,56.60
2023-04-24T22:46:47.844Z,56.70
2023-04-24T22:49:16.670Z,56.80
2023-04-24T22:51:45.557Z,57.00
2023-04-24T22:54:14.311Z,56.80
2023-04-24T22:56:43.178Z,56.80
2023-04-24T22:59:11.997Z,56.90
2023-04-24T23:01:40.608Z,56.90
2023-04-24T23:04:10.644Z,57.00
2023-04-24T23:06:39.107Z,56.90
2023-04-24T23:09:08.322Z,57.10
2023-04-24T23:11:36.866Z,57.20
2023-04-24T23:14:05.352Z,57.10
2023-04-24T23:16:37.707Z,57.20
2023-04-24T23:19:06.307Z,57.30
2023-04-24T23:21:36.142Z,57.20
2023-04-24T23:24:04.550Z,57.40
2023-04-24T23:26:33.100Z,57.60
2023-04-24T23:29:01.406Z,57.70
2023-04-24T23:31:30.057Z,57.70
2023-04-24T23:34:00.162Z,57.70
2023-04-24T23:36:28.695Z,57.80
2023-04-24T23:38:58.464Z,58.00
2023-04-24T23:41:27.216Z,58.00
2023-04-24T23:43:55.724Z,58.10
2023-04-24T23:46:25.730Z,58.20
2023-04-24T23:48:54.449Z,58.10
2023-04-24T23:51:23.362Z,58.20
2023-04-24T23:53:53.458Z,58.10
2023-04-24T23:56:24.555Z,58.10
2023-04-24T23:58:53.291Z,58.10
